createdAt,value
2022-10-22T00:02:02.279Z,18.00
2022-10-22T00:04:34.368Z,16.77
2022-10-22T00:07:03.453Z,19.73
2022-10-22T00:09:30.740Z,15.15
2022-10-22T00:11:59.914Z,16.38
2022-10-22T00:14:27.225Z,15.50
2022-10-22T00:16:54.975Z,16.60
2022-10-22T00:19:22.342Z,14.80
2022-10-22T00:21:49.927Z,13.15
2022-10-22T00:24:17.298Z,17.70
2022-10-22T00:26:45.190Z,14.77
2022-10-22T00:29:14.208Z,14.25
2022-10-22T00:31:42.459Z,13.23
2022-10-22T00:34:09.731Z,14.38
2022-10-22T00:36:37.371Z,15.90
2022-10-22T00:39:04.758Z,18.42
2022-10-22T00:41:32.771Z,15.07
2022-10-22T00:44:02.008Z,14.48
2022-10-22T00:46:31.475Z,15.85
2022-10-22T00:49:02.917Z,17.23
2022-10-22T00:51:34.063Z,14.45
2022-10-22T00:54:06.479Z,15.48
2022-10-22T00:56:34.136Z,13.98
2022-10-22T00:59:03.257Z,16.95
2022-10-22T01:01:32.563Z,15.98
2022-10-22T01:04:00.703Z,15.20
2022-10-22T01:06:30.994Z,14.80
2022-10-22T01:09:15.335Z,14.35
2022-10-22T01:11:53.657Z,11.82
2022-10-22T01:14:27.604Z,13.80
2022-10-22T01:17:03.587Z,14.75
2022-10-22T01:19:54.108Z,13.20
2022-10-22T01:22:30.833Z,13.65
2022-10-22T01:25:02.091Z,13.00
2022-10-22T01:27:40.095Z,12.93
2022-10-22T01:30:11.855Z,11.60
2022-10-22T01:32:43.933Z,11.25
2022-10-22T01:35:14.426Z,13.68
2022-10-22T01:37:46.382Z,17.67
2022-10-22T01:40:15.987Z,11.35
2022-10-22T01:42:57.760Z,13.57
2022-10-22T01:45:28.096Z,11.50
2022-10-22T01:48:07.108Z,13.32
2022-10-22T01:51:06.109Z,12.40
2022-10-22T01:56:25.607Z,13.18
2022-10-22T01:59:02.238Z,13.20
2022-10-22T02:01:39.720Z,15.80
2022-10-22T02:04:15.795Z,12.93
2022-10-22T02:06:46.968Z,15.82
2022-10-22T02:09:17.890Z,14.88
2022-10-22T02:11:46.421Z,15.10
2022-10-22T02:14:16.205Z,14.38
2022-10-22T02:16:47.577Z,11.63
2022-10-22T02:19:19.913Z,12.00
2022-10-22T02:21:47.439Z,14.73
2022-10-22T02:24:15.949Z,17.67
2022-10-22T02:26:49.039Z,13.60
2022-10-22T02:29:21.948Z,12.85
2022-10-22T02:31:53.945Z,14.82
2022-10-22T02:34:25.761Z,16.70
2022-10-22T02:36:54.718Z,11.63
2022-10-22T02:39:22.852Z,14.38
2022-10-22T02:41:50.432Z,13.13
2022-10-22T02:44:21.789Z,14.18
2022-10-22T02:46:51.086Z,12.48
2022-10-22T02:49:18.957Z,18.95
2022-10-22T02:51:46.202Z,13.23
2022-10-22T02:54:14.285Z,15.48
2022-10-22T02:56:41.991Z,15.45
2022-10-22T02:59:10.288Z,13.90
2022-10-22T03:01:37.462Z,17.35
2022-10-22T03:04:07.434Z,15.18
2022-10-22T03:06:34.707Z,12.57
2022-10-22T03:09:05.325Z,13.45
2022-10-22T03:11:32.781Z,15.18
2022-10-22T03:14:00.605Z,17.15
2022-10-22T03:16:27.955Z,14.10
2022-10-22T03:18:56.027Z,12.70
2022-10-22T03:21:31.515Z,13.00
2022-10-22T03:24:01.954Z,12.43
2022-10-22T03:26:29.715Z,12.80
2022-10-22T03:28:58.126Z,14.80
2022-10-22T03:31:25.532Z,14.90
2022-10-22T03:33:53.287Z,14.30
2022-10-22T03:36:20.755Z,11.90
2022-10-22T03:38:50.691Z,14.45
2022-10-22T03:41:18.130Z,15.60
2022-10-22T03:43:46.104Z,14.48
2022-10-22T03:46:13.468Z,13.10
2022-10-22T03:48:41.464Z,13.48
2022-10-22T03:51:08.832Z,11.48
2022-10-22T03:53:36.723Z,14.85
2022-10-22T03:56:08.591Z,13.60
2022-10-22T03:58:36.429Z,11.27
2022-10-22T04:01:05.648Z,14.30
2022-10-22T04:03:33.952Z,12.88
2022-10-22T04:06:02.768Z,12.73
2022-10-22T04:08:30.875Z,12.73
2022-10-22T04:10:58.709Z,13.00
2022-10-22T04:13:28.275Z,12.60
2022-10-22T04:15:55.728Z,13.30
2022-10-22T04:18:24.125Z,13.48
2022-10-22T04:20:52.592Z,14.60
2022-10-22T04:23:20.744Z,12.15
2022-10-22T04:25:48.144Z,14.27
2022-10-22T04:28:15.801Z,12.95
2022-10-22T04:30:44.454Z,12.65
2022-10-22T04:33:12.088Z,14.73
2022-10-22T04:35:39.660Z,12.57
2022-10-22T04:38:07.392Z,14.10
2022-10-22T04:40:35.032Z,16.90
2022-10-22T04:43:02.794Z,17.92
2022-10-22T04:45:30.164Z,13.80
2022-10-22T04:47:59.467Z,16.35
2022-10-22T04:50:27.032Z,16.70
2022-10-22T04:52:54.854Z,18.00
2022-10-22T04:55:22.277Z,15.30
2022-10-22T04:57:50.037Z,16.73
2022-10-22T05:00:17.760Z,14.80
2022-10-22T05:02:49.994Z,16.67
2022-10-22T05:05:18.834Z,16.00
2022-10-22T05:07:46.758Z,16.77
2022-10-22T05:10:14.332Z,12.20
2022-10-22T05:12:42.027Z,13.52
2022-10-22T05:15:10.430Z,16.13
2022-10-22T05:17:38.361Z,14.98
2022-10-22T05:20:07.116Z,12.60
2022-10-22T05:22:38.276Z,15.05
2022-10-22T05:25:06.579Z,14.23
2022-10-22T05:27:34.173Z,15.00
2022-10-22T05:30:01.556Z,15.80
2022-10-22T05:32:29.238Z,12.20
2022-10-22T05:34:56.581Z,15.20
2022-10-22T05:37:30.071Z,13.90
2022-10-22T05:40:12.333Z,13.82
2022-10-22T05:42:46.504Z,14.85
2022-10-22T05:45:14.051Z,14.38
2022-10-22T05:47:41.646Z,16.08
2022-10-22T05:50:09.270Z,14.20
2022-10-22T05:52:36.968Z,19.52
2022-10-22T05:55:06.426Z,13.70
2022-10-22T05:57:34.777Z,13.98
2022-10-22T06:00:02.471Z,13.05
2022-10-22T06:02:30.570Z,17.40
2022-10-22T06:05:01.049Z,19.92
2022-10-22T06:07:29.586Z,16.77
2022-10-22T06:10:00.150Z,14.85
2022-10-22T06:12:29.779Z,14.13
2022-10-22T06:14:57.028Z,14.35
2022-10-22T06:17:24.929Z,15.63
2022-10-22T06:19:52.349Z,19.13
2022-10-22T06:22:20.212Z,19.55
2022-10-22T06:24:47.761Z,17.73
2022-10-22T06:27:16.055Z,16.55
2022-10-22T06:29:44.780Z,18.25
2022-10-22T06:32:12.406Z,16.10
2022-10-22T06:34:39.798Z,19.25
2022-10-22T06:37:07.751Z,18.02
2022-10-22T06:39:34.982Z,18.80
2022-10-22T06:42:02.592Z,17.80
2022-10-22T06:44:29.943Z,18.45
2022-10-22T06:46:59.164Z,21.23
2022-10-22T06:49:26.476Z,18.10
2022-10-22T06:51:54.842Z,19.00
2022-10-22T06:54:23.113Z,17.58
2022-10-22T06:56:51.199Z,21.02
2022-10-22T06:59:18.438Z,19.88
2022-10-22T07:01:46.599Z,16.98
2022-10-22T07:04:15.708Z,18.00
2022-10-22T07:06:43.268Z,22.25
2022-10-22T07:09:11.218Z,19.35
2022-10-22T07:11:41.650Z,20.17
2022-10-22T07:14:09.860Z,23.58
2022-10-22T07:16:37.609Z,20.38
2022-10-22T07:19:05.701Z,16.73
2022-10-22T07:21:35.292Z,19.30
2022-10-22T07:24:02.616Z,19.88
2022-10-22T07:26:30.928Z,23.40
2022-10-22T07:28:58.841Z,18.60
2022-10-22T07:31:27.540Z,16.73
2022-10-22T07:33:55.102Z,20.23
2022-10-22T07:36:23.051Z,21.33
2022-10-22T07:38:54.949Z,22.02
2022-10-22T07:41:23.078Z,25.55
2022-10-22T07:43:50.503Z,22.85
2022-10-22T07:46:18.165Z,19.67
2022-10-22T07:48:45.625Z,20.95
2022-10-22T07:51:15.306Z,20.95
2022-10-22T07:53:43.757Z,25.30
2022-10-22T07:56:13.067Z,20.23
2022-10-22T07:58:40.228Z,20.13
2022-10-22T08:01:08.179Z,22.50
2022-10-22T08:03:36.116Z,21.70
2022-10-22T08:06:04.145Z,21.70
2022-10-22T08:08:31.824Z,25.55
2022-10-22T08:11:01.233Z,25.73
2022-10-22T08:13:30.218Z,23.02
2022-10-22T08:15:58.746Z,28.00
2022-10-22T08:18:26.306Z,26.00
2022-10-22T08:20:54.467Z,24.02
2022-10-22T08:23:25.919Z,23.58
2022-10-22T08:25:57.147Z,22.52
2022-10-22T08:28:24.629Z,24.67
2022-10-22T08:30:53.991Z,23.63
2022-10-22T08:33:21.748Z,26.25
2022-10-22T08:35:49.714Z,26.65
2022-10-22T08:38:17.598Z,26.23
2022-10-22T08:43:41.658Z,29.20
2022-10-22T08:46:46.891Z,28.05
2022-10-22T08:49:20.667Z,29.05
2022-10-22T08:51:48.836Z,29.50
2022-10-22T08:54:28.038Z,32.08
2022-10-22T08:57:13.419Z,34.08
2022-10-22T08:59:46.150Z,27.05
2022-10-22T09:02:28.600Z,26.92
2022-10-22T09:05:11.496Z,30.20
2022-10-22T09:07:42.425Z,27.00
2022-10-22T09:10:12.806Z,22.30
2022-10-22T09:12:40.759Z,27.02
2022-10-22T09:15:13.509Z,25.63
2022-10-22T09:17:54.548Z,29.05
2022-10-22T09:20:27.336Z,25.48
2022-10-22T09:23:05.127Z,29.10
2022-10-22T09:25:36.608Z,25.45
2022-10-22T09:28:05.221Z,26.52
2022-10-22T09:30:36.500Z,25.80
2022-10-22T09:33:14.190Z,26.45
2022-10-22T09:35:47.196Z,25.70
2022-10-22T09:38:16.749Z,33.38
2022-10-22T09:40:45.888Z,24.95
2022-10-22T09:43:14.613Z,28.85
2022-10-22T09:45:42.814Z,26.80
2022-10-22T09:48:20.556Z,20.75
2022-10-22T09:50:49.644Z,26.13
2022-10-22T09:53:20.618Z,21.00
2022-10-22T09:58:22.254Z,23.95
2022-10-22T10:00:54.403Z,24.98
2022-10-22T10:03:26.247Z,23.15
2022-10-22T10:05:56.327Z,23.83
2022-10-22T10:08:25.285Z,25.48
2022-10-22T10:10:56.750Z,22.85
2022-10-22T10:13:35.516Z,28.67
2022-10-22T10:16:12.086Z,20.63
2022-10-22T10:18:55.838Z,19.90
2022-10-22T10:21:31.014Z,23.10
2022-10-22T10:24:06.111Z,25.08
2022-10-22T10:26:42.877Z,25.75
2022-10-22T10:29:24.826Z,26.33
2022-10-22T10:32:07.173Z,24.85
2022-10-22T10:34:43.864Z,22.00
2022-10-22T10:37:23.257Z,24.38
2022-10-22T10:40:12.438Z,22.88
2022-10-22T10:42:46.848Z,22.13
2022-10-22T10:45:19.070Z,17.55
2022-10-22T10:48:07.615Z,16.90
2022-10-22T10:50:48.872Z,16.73
2022-10-22T10:53:27.423Z,16.20
2022-10-22T10:56:01.747Z,15.15
2022-10-22T10:58:40.699Z,16.00
2022-10-22T11:01:20.090Z,17.17
2022-10-22T11:04:02.305Z,19.60
2022-10-22T11:06:34.229Z,16.23
2022-10-22T11:09:07.152Z,18.77
2022-10-22T11:11:41.437Z,17.75
2022-10-22T11:14:14.653Z,17.45
2022-10-22T11:16:46.719Z,15.32
2022-10-22T11:19:22.802Z,15.23
2022-10-22T11:22:02.029Z,18.45
2022-10-22T11:24:36.823Z,14.88
2022-10-22T11:27:13.302Z,14.90
2022-10-22T11:29:45.527Z,19.65
2022-10-22T11:32:17.592Z,17.08
2022-10-22T11:34:48.647Z,17.60
2022-10-22T11:37:18.885Z,19.35
2022-10-22T11:39:50.810Z,15.30
2022-10-22T11:42:21.195Z,14.15
2022-10-22T11:44:58.853Z,16.42
2022-10-22T11:47:29.002Z,13.57
2022-10-22T11:50:02.850Z,17.63
2022-10-22T11:52:55.594Z,12.68
2022-10-22T11:55:44.912Z,12.43
2022-10-22T11:58:29.062Z,16.50
2022-10-22T12:00:58.261Z,14.55
2022-10-22T12:03:39.788Z,14.65
2022-10-22T12:06:19.779Z,16.88
2022-10-22T12:08:53.808Z,16.60
2022-10-22T12:11:23.662Z,13.10
2022-10-22T12:13:58.268Z,16.20
2022-10-22T12:16:32.276Z,16.92
2022-10-22T12:19:12.836Z,13.68
2022-10-22T12:21:42.514Z,15.73
2022-10-22T12:24:14.750Z,16.27
2022-10-22T12:26:42.568Z,11.45
2022-10-22T12:29:13.553Z,19.00
2022-10-22T12:31:42.739Z,14.50
2022-10-22T12:34:15.077Z,15.98
2022-10-22T12:39:15.136Z,19.83
2022-10-22T12:41:43.289Z,17.73
2022-10-22T12:44:13.332Z,16.10
2022-10-22T12:46:42.207Z,18.65
2022-10-22T12:49:15.772Z,34.30
2022-10-22T12:51:44.522Z,41.55
2022-10-22T12:54:23.292Z,20.02
2022-10-22T13:02:17.450Z,26.75
2022-10-22T13:05:15.018Z,21.80
2022-10-22T13:07:44.975Z,22.38
2022-10-22T13:10:20.462Z,25.35
2022-10-22T13:12:54.134Z,24.73
2022-10-22T13:15:33.804Z,18.42
2022-10-22T13:18:06.995Z,19.15
2022-10-22T13:20:34.833Z,21.05
2022-10-22T13:23:03.405Z,19.17
2022-10-22T13:25:34.167Z,19.45
2022-10-22T13:28:10.859Z,30.63
2022-10-22T13:30:40.206Z,21.30
2022-10-22T13:33:22.440Z,20.33
2022-10-22T13:35:50.503Z,37.35
2022-10-22T13:38:20.462Z,32.50
2022-10-22T13:40:53.565Z,29.95
2022-10-22T13:43:21.127Z,20.75
2022-10-22T13:45:53.315Z,27.08
2022-10-22T13:48:23.756Z,19.70
2022-10-22T13:50:53.332Z,32.95
2022-10-22T13:53:23.373Z,16.17
2022-10-22T13:55:52.934Z,14.98
2022-10-22T13:58:24.896Z,15.43
2022-10-22T14:00:55.097Z,12.60
2022-10-22T14:03:26.769Z,13.02
2022-10-22T14:05:54.599Z,12.95
2022-10-22T14:08:24.519Z,12.30
2022-10-22T14:10:54.355Z,11.90
2022-10-22T14:13:21.745Z,13.57
2022-10-22T14:15:51.593Z,10.85
2022-10-22T14:18:23.281Z,11.57
2022-10-22T14:20:52.620Z,8.45
2022-10-22T14:23:23.020Z,9.18
2022-10-22T14:25:51.352Z,9.57
2022-10-22T14:28:20.150Z,8.32
2022-10-22T14:30:48.066Z,9.65
2022-10-22T14:33:18.218Z,7.95
2022-10-22T14:35:46.304Z,8.85
2022-10-22T14:38:13.824Z,9.02
2022-10-22T14:40:42.481Z,8.57
2022-10-22T14:43:11.951Z,9.13
2022-10-22T14:45:41.336Z,9.13
2022-10-22T14:48:08.708Z,8.40
2022-10-22T14:50:36.499Z,10.18
2022-10-22T14:53:03.932Z,10.95
2022-10-22T14:55:31.593Z,8.57
2022-10-22T14:57:58.979Z,9.50
2022-10-22T15:00:26.868Z,10.45
2022-10-22T15:02:55.838Z,9.57
2022-10-22T15:05:23.702Z,9.40
2022-10-22T15:07:51.045Z,8.77
2022-10-22T15:10:18.677Z,10.90
2022-10-22T15:12:46.526Z,9.80
2022-10-22T15:15:15.691Z,13.68
2022-10-22T15:17:44.233Z,8.82
2022-10-22T15:20:13.652Z,8.40
2022-10-22T15:22:41.335Z,9.20
2022-10-22T15:25:09.253Z,9.75
2022-10-22T15:27:36.773Z,10.50
2022-10-22T15:30:06.590Z,9.23
2022-10-22T15:32:34.108Z,9.52
2022-10-22T15:35:01.919Z,10.95
2022-10-22T15:37:30.969Z,12.05
2022-10-22T15:39:58.716Z,11.63
2022-10-22T15:42:26.121Z,12.13
2022-10-22T15:44:58.262Z,11.25
2022-10-22T15:47:25.557Z,10.30
2022-10-22T15:49:53.143Z,9.45
2022-10-22T15:52:20.507Z,10.23
2022-10-22T15:54:49.680Z,10.68
2022-10-22T15:57:17.082Z,10.25
2022-10-22T15:59:44.777Z,12.90
2022-10-22T16:02:12.094Z,18.50
2022-10-22T16:04:40.234Z,12.13
2022-10-22T16:07:07.511Z,8.20
2022-10-22T16:09:35.346Z,7.55
2022-10-22T16:12:04.644Z,9.75
2022-10-22T16:14:32.719Z,9.85
2022-10-22T16:17:03.049Z,8.25
2022-10-22T16:19:30.632Z,14.73
2022-10-22T16:21:57.940Z,11.77
2022-10-22T16:24:25.731Z,11.10
2022-10-22T16:26:52.972Z,15.70
2022-10-22T16:29:21.904Z,13.70
2022-10-22T16:31:49.189Z,12.68
2022-10-22T16:34:17.315Z,10.57
2022-10-22T16:36:44.856Z,13.18
2022-10-22T16:39:12.672Z,11.23
2022-10-22T16:41:39.816Z,13.20
2022-10-22T16:44:08.283Z,14.27
2022-10-22T16:46:37.155Z,11.80
2022-10-22T16:49:06.682Z,13.70
2022-10-22T16:51:34.841Z,11.70
2022-10-22T16:54:04.631Z,8.80
2022-10-22T16:56:34.297Z,11.85
2022-10-22T16:59:02.133Z,13.23
2022-10-22T17:01:30.046Z,9.98
2022-10-22T17:04:00.634Z,10.25
2022-10-22T17:06:28.301Z,8.50
2022-10-22T17:08:56.243Z,8.75
2022-10-22T17:11:24.445Z,9.43
2022-10-22T17:13:54.133Z,10.65
2022-10-22T17:16:23.514Z,8.32
2022-10-22T17:18:52.848Z,10.63
2022-10-22T17:21:22.630Z,9.68
2022-10-22T17:23:54.694Z,11.57
2022-10-22T17:26:22.903Z,10.10
2022-10-22T17:28:51.279Z,10.68
2022-10-22T17:31:20.794Z,9.27
2022-10-22T17:33:50.291Z,8.82
2022-10-22T17:36:18.906Z,13.80
2022-10-22T17:38:51.998Z,10.27
2022-10-22T17:41:21.972Z,10.13
2022-10-22T17:43:49.707Z,12.10
2022-10-22T17:46:19.341Z,10.65
2022-10-22T17:48:50.622Z,11.15
2022-10-22T17:51:18.946Z,12.23
2022-10-22T17:53:47.031Z,9.95
2022-10-22T17:56:18.127Z,9.20
2022-10-22T17:58:45.729Z,10.68
2022-10-22T18:01:19.105Z,9.77
2022-10-22T18:03:47.214Z,9.23
2022-10-22T18:06:14.649Z,13.65
2022-10-22T18:08:42.574Z,11.93
2022-10-22T18:11:12.738Z,11.88
2022-10-22T18:13:42.017Z,12.98
2022-10-22T18:16:09.576Z,11.68
2022-10-22T18:18:37.278Z,14.32
2022-10-22T18:21:05.347Z,12.02
2022-10-22T18:23:33.035Z,13.85
2022-10-22T18:26:00.568Z,11.30
2022-10-22T18:28:28.202Z,12.30
2022-10-22T18:30:57.038Z,17.42
2022-10-22T18:33:24.711Z,10.15
2022-10-22T18:35:53.334Z,11.27
2022-10-22T18:38:21.096Z,14.85
2022-10-22T18:40:49.738Z,13.15
2022-10-22T18:43:18.214Z,12.23
2022-10-22T18:45:46.853Z,10.18
2022-10-22T18:48:17.949Z,10.85
2022-10-22T18:50:46.612Z,15.20
2022-10-22T18:53:16.250Z,10.00
2022-10-22T18:55:44.508Z,15.15
2022-10-22T18:58:12.214Z,10.88
2022-10-22T19:00:39.852Z,13.73
2022-10-22T19:03:07.619Z,11.15
2022-10-22T19:05:45.522Z,14.63
2022-10-22T19:08:13.473Z,12.60
2022-10-22T19:10:40.922Z,11.73
2022-10-22T19:13:08.708Z,10.60
2022-10-22T19:15:36.217Z,11.80
2022-10-22T19:18:04.332Z,12.73
2022-10-22T19:20:31.814Z,12.45
2022-10-22T19:23:01.206Z,11.95
2022-10-22T19:25:29.242Z,11.65
2022-10-22T19:27:57.146Z,10.32
2022-10-22T19:30:24.789Z,10.95
2022-10-22T19:32:52.552Z,9.93
2022-10-22T19:35:19.988Z,11.27
2022-10-22T19:37:48.526Z,12.13
2022-10-22T19:40:17.697Z,10.38
2022-10-22T19:42:45.658Z,10.05
2022-10-22T19:45:13.135Z,12.63
2022-10-22T19:47:41.277Z,10.68
2022-10-22T19:50:08.955Z,11.77
2022-10-22T19:52:37.138Z,13.70
2022-10-22T19:55:05.083Z,12.30
2022-10-22T19:57:34.109Z,14.70
2022-10-22T20:00:01.604Z,13.18
2022-10-22T20:02:29.525Z,15.25
2022-10-22T20:04:56.908Z,14.07
2022-10-22T20:07:24.635Z,15.07
2022-10-22T20:09:51.982Z,15.85
2022-10-22T20:12:23.037Z,13.30
2022-10-22T20:14:51.939Z,10.98
2022-10-22T20:17:19.790Z,12.93
2022-10-22T20:19:47.395Z,13.23
2022-10-22T20:22:17.929Z,11.55
2022-10-22T20:24:46.215Z,14.20
2022-10-22T20:27:13.912Z,12.13
2022-10-22T20:29:41.444Z,11.90
2022-10-22T20:32:10.897Z,12.65
2022-10-22T20:34:38.178Z,12.10
2022-10-22T20:37:05.870Z,13.80
2022-10-22T20:39:33.160Z,14.07
2022-10-22T20:42:00.727Z,12.27
2022-10-22T20:44:27.943Z,12.43
2022-10-22T20:51:56.542Z,15.45
2022-10-22T20:54:23.962Z,12.90
2022-10-22T20:56:51.512Z,12.75
2022-10-22T20:59:19.231Z,10.77
2022-10-22T21:01:48.913Z,10.90
2022-10-22T21:04:17.933Z,10.70
2022-10-22T21:06:47.707Z,13.48
2022-10-22T21:09:15.739Z,12.85
2022-10-22T21:11:44.504Z,14.85
2022-10-22T21:14:14.190Z,12.77
2022-10-22T21:16:50.236Z,12.82
2022-10-22T21:19:18.744Z,13.35
2022-10-22T21:21:47.843Z,12.40
2022-10-22T21:24:15.564Z,12.48
2022-10-22T21:26:43.923Z,15.50
2022-10-22T21:29:12.831Z,14.65
2022-10-22T21:31:40.670Z,13.23
2022-10-22T21:34:08.168Z,12.25
2022-10-22T21:36:35.900Z,15.68
2022-10-22T21:39:04.739Z,14.15
2022-10-22T21:41:32.808Z,16.90
2022-10-22T21:44:00.226Z,14.82
2022-10-22T21:46:28.702Z,16.95
2022-10-22T21:48:58.630Z,14.00
2022-10-22T21:51:27.299Z,15.27
2022-10-22T21:53:54.595Z,15.23
2022-10-22T21:56:25.954Z,13.98
2022-10-22T21:58:53.528Z,14.35
2022-10-22T22:01:21.559Z,15.10
2022-10-22T22:03:49.959Z,14.25
2022-10-22T22:06:21.367Z,11.77
2022-10-22T22:08:50.675Z,12.45
2022-10-22T22:11:20.472Z,14.52
2022-10-22T22:13:49.702Z,14.73
2022-10-22T22:16:25.396Z,9.73
2022-10-22T22:18:56.238Z,10.40
2022-10-22T22:21:24.861Z,14.90
2022-10-22T22:23:52.285Z,13.75
2022-10-22T22:26:28.710Z,12.00
2022-10-22T22:29:00.395Z,13.23
2022-10-22T22:31:30.632Z,12.80
2022-10-22T22:33:58.916Z,11.10
2022-10-22T22:36:26.849Z,12.38
2022-10-22T22:38:55.255Z,10.38
2022-10-22T22:41:23.814Z,12.38
2022-10-22T22:43:51.247Z,13.77
2022-10-22T22:46:23.271Z,7.75
2022-10-22T22:48:50.903Z,15.38
2022-10-22T22:51:19.149Z,12.93
2022-10-22T22:53:46.878Z,12.45
2022-10-22T22:56:17.106Z,16.60
2022-10-22T22:58:44.836Z,13.90
2022-10-22T23:01:16.817Z,14.35
2022-10-22T23:03:47.817Z,12.30
2022-10-22T23:06:16.382Z,12.90
2022-10-22T23:08:44.442Z,11.63
2022-10-22T23:11:13.823Z,13.27
2022-10-22T23:13:42.766Z,15.27
2022-10-22T23:16:14.381Z,10.30
2022-10-22T23:18:42.180Z,10.90
2022-10-22T23:21:14.788Z,11.70
2022-10-22T23:23:44.441Z,14.25
2022-10-22T23:26:13.113Z,10.88
2022-10-22T23:28:40.874Z,12.43
2022-10-22T23:31:12.384Z,15.07
2022-10-22T23:33:40.246Z,16.17
2022-10-22T23:36:08.132Z,12.15
2022-10-22T23:38:38.760Z,11.77
2022-10-22T23:41:08.044Z,11.75
2022-10-22T23:43:36.254Z,12.73
2022-10-22T23:46:05.132Z,18.85
2022-10-22T23:48:35.622Z,13.30
2022-10-22T23:51:05.022Z,11.02
2022-10-22T23:53:32.322Z,13.60
2022-10-22T23:56:05.939Z,12.45
2022-10-22T23:58:34.351Z,14.02
